Time;durP1;ratioP1;P1;durP2;ratioP2;P2;SDS_P1;SDS_P2;PMS_P1;PMS_P2;Temp;Humidity;BMP_temperature;BMP_pressure;BME280_temperature;BME280_humidity;BME280_pressure;Samples;Min_cycle;Max_cycle;Signal;HPM_P1;HPM_P2
2022/04/24 00:01:40;;;;;;;7.57;5.25;;;10.20;99.90;;;;;;4859198;29;20100;-80
2022/04/24 00:04:06;;;;;;;8.57;6.03;;;9.50;99.90;;;;;;4857838;29;20182;-80
2022/04/24 00:06:32;;;;;;;9.85;6.13;;;9.90;99.90;;;;;;4894103;29;20520;-80
2022/04/24 00:08:58;;;;;;;10.95;5.97;;;9.40;99.90;;;;;;4861420;29;20461;-80
2022/04/24 00:11:24;;;;;;;7.65;5.60;;;9.40;99.90;;;;;;4876555;29;20049;-79
2022/04/24 00:13:50;;;;;;;10.88;6.40;;;9.40;99.90;;;;;;4876198;29;20452;-80
2022/04/24 00:16:15;;;;;;;13.43;6.03;;;9.50;99.90;;;;;;4877341;29;20425;-80
2022/04/24 00:18:44;;;;;;;10.63;6.03;;;9.30;99.90;;;;;;4860445;29;20057;-80
2022/04/24 00:21:10;;;;;;;9.48;5.93;;;9.30;99.90;;;;;;4877171;29;20052;-80
2022/04/24 00:23:35;;;;;;;9.43;6.38;;;9.30;99.90;;;;;;4893658;29;20177;-80
2022/04/24 00:26:07;;;;;;;9.80;6.30;;;9.20;99.90;;;;;;4875845;29;20082;-80
2022/04/24 00:28:33;;;;;;;9.68;6.72;;;9.20;99.90;;;;;;4861115;29;20052;-80
2022/04/24 00:30:59;;;;;;;8.43;6.10;;;10.10;99.90;;;;;;4891951;29;20382;-80
2022/04/24 00:33:24;;;;;;;8.65;6.38;;;9.10;99.90;;;;;;4891378;29;20074;-80
2022/04/24 00:35:50;;;;;;;10.40;6.57;;;9.10;99.90;;;;;;4891493;29;20052;-80
2022/04/24 00:38:16;;;;;;;14.98;7.22;;;9.80;99.90;;;;;;4892545;29;20055;-80
2022/04/24 00:40:47;;;;;;;8.90;6.35;;;9.10;99.90;;;;;;4891440;29;20084;-80
2022/04/24 00:43:13;;;;;;;10.13;6.30;;;9.20;99.90;;;;;;4892357;29;20410;-80
2022/04/24 00:45:38;;;;;;;9.77;6.55;;;9.10;99.90;;;;;;4891143;29;20052;-80
2022/04/24 00:48:05;;;;;;;12.57;6.45;;;9.60;99.90;;;;;;4892620;29;20048;-80
2022/04/24 00:50:31;;;;;;;8.73;6.40;;;9.10;99.90;;;;;;4891825;29;20596;-80
2022/04/24 00:52:57;;;;;;;12.98;7.20;;;9.20;99.90;;;;;;4891432;29;20044;-79
2022/04/24 00:55:23;;;;;;;8.85;6.82;;;9.70;99.90;;;;;;4892601;29;20052;-80
2022/04/24 00:57:50;;;;;;;12.38;7.18;;;9.40;99.90;;;;;;4891186;29;20076;-80
2022/04/24 01:00:16;;;;;;;9.32;6.47;;;9.60;99.90;;;;;;4875113;29;20048;-79
2022/04/24 01:02:44;;;;;;;8.88;6.53;;;9.00;99.90;;;;;;4892067;29;20045;-80
2022/04/24 01:05:10;;;;;;;12.68;6.93;;;9.00;99.90;;;;;;4857590;29;20065;-80
2022/04/24 01:07:36;;;;;;;10.15;7.05;;;9.60;99.90;;;;;;4872993;29;20568;-80
2022/04/24 01:10:02;;;;;;;11.77;7.00;;;9.00;99.90;;;;;;4874754;29;20135;-80
2022/04/24 01:12:27;;;;;;;9.07;6.25;;;8.90;99.90;;;;;;4892570;29;20410;-80
2022/04/24 01:14:53;;;;;;;10.90;6.40;;;9.40;99.90;;;;;;4891215;29;20136;-79
2022/04/24 01:17:19;;;;;;;9.88;6.53;;;9.40;99.90;;;;;;4880680;29;20048;-80
2022/04/24 01:19:44;;;;;;;8.68;6.05;;;8.90;99.90;;;;;;4880062;29;20104;-79
2022/04/24 01:22:10;;;;;;;8.63;6.65;;;9.70;99.90;;;;;;4894592;29;20553;-80
2022/04/24 01:24:36;;;;;;;10.25;6.68;;;9.60;99.90;;;;;;4896026;29;20044;-81
2022/04/24 01:27:02;;;;;;;10.20;6.18;;;9.30;99.90;;;;;;4895069;29;20053;-79
2022/04/24 01:29:28;;;;;;;12.95;6.68;;;8.80;99.90;;;;;;4896303;29;20061;-79
2022/04/24 01:31:54;;;;;;;12.15;7.03;;;8.80;99.90;;;;;;4879896;29;20413;-79
2022/04/24 01:34:20;;;;;;;10.45;6.47;;;9.40;99.90;;;;;;4879554;29;20100;-79
2022/04/24 01:36:47;;;;;;;11.38;6.72;;;9.00;99.90;;;;;;4894468;29;20047;-79
2022/04/24 01:39:15;;;;;;;9.98;6.70;;;8.80;99.90;;;;;;4896347;29;20052;-79
2022/04/24 01:41:41;;;;;;;9.85;6.50;;;9.20;99.90;;;;;;4880002;29;20520;-79
2022/04/24 01:44:07;;;;;;;11.18;6.75;;;9.20;99.90;;;;;;4894374;29;20088;-79
2022/04/24 01:46:33;;;;;;;11.10;6.38;;;8.60;99.90;;;;;;4895165;29;20052;-80
2022/04/24 01:48:58;;;;;;;9.05;6.72;;;8.70;99.90;;;;;;4894911;29;20489;-80
2022/04/24 01:51:24;;;;;;;11.15;6.95;;;8.50;99.90;;;;;;4894756;29;20107;-80
2022/04/24 01:53:49;;;;;;;11.65;7.45;;;8.40;99.90;;;;;;4896616;29;20045;-80
2022/04/24 01:56:15;;;;;;;9.85;7.28;;;8.90;99.90;;;;;;4896485;29;20509;-80
2022/04/24 01:58:41;;;;;;;13.00;7.60;;;8.20;99.90;;;;;;4867432;29;20513;-80
2022/04/24 02:01:07;;;;;;;12.23;7.60;;;8.40;99.90;;;;;;4876129;29;20088;-80
2022/04/24 02:03:34;;;;;;;9.23;7.53;;;8.00;99.90;;;;;;4876458;29;20410;-80
2022/04/24 02:06:01;;;;;;;10.27;7.45;;;8.50;99.90;;;;;;4860140;29;20065;-80
2022/04/24 02:08:27;;;;;;;9.93;8.13;;;7.80;99.90;;;;;;4875903;29;20089;-80
2022/04/24 02:10:53;;;;;;;10.27;8.18;;;8.10;99.90;;;;;;4874716;29;20061;-80
2022/04/24 02:13:19;;;;;;;10.75;7.53;;;7.70;99.90;;;;;;4876448;29;20108;-80
2022/04/24 02:15:47;;;;;;;12.88;7.97;;;8.00;99.90;;;;;;4876559;29;20438;-80
2022/04/24 02:18:13;;;;;;;9.63;7.88;;;7.60;99.90;;;;;;4875485;29;20063;-80
2022/04/24 02:20:38;;;;;;;13.15;7.90;;;6.50;99.90;;;;;;4860333;29;20045;-80
2022/04/24 02:23:04;;;;;;;11.55;8.63;;;8.00;99.90;;;;;;4875902;29;20303;-80
2022/04/24 02:25:30;;;;;;;13.63;8.55;;;7.40;99.90;;;;;;4875413;29;20462;-80
2022/04/24 02:27:56;;;;;;;11.23;8.50;;;7.90;99.90;;;;;;4874527;29;20058;-81
2022/04/24 02:30:28;;;;;;;11.80;7.90;;;7.90;99.90;;;;;;4876546;29;20124;-80
2022/04/24 02:32:57;;;;;;;12.95;8.40;;;7.50;99.90;;;;;;4875298;29;20524;-80
2022/04/24 02:35:23;;;;;;;11.60;8.45;;;7.20;99.90;;;;;;4875742;29;20061;-80
2022/04/24 02:37:49;;;;;;;11.23;8.90;;;7.30;99.90;;;;;;4875620;29;20060;-81
2022/04/24 02:40:19;;;;;;;10.75;8.10;;;7.20;99.90;;;;;;4875181;29;20454;-81
2022/04/24 02:42:45;;;;;;;14.30;8.23;;;7.10;99.90;;;;;;4859706;29;20504;-81
2022/04/24 02:45:11;;;;;;;13.13;9.10;;;7.40;99.90;;;;;;4859510;29;20049;-80
2022/04/24 02:47:40;;;;;;;10.52;8.55;;;7.10;99.90;;;;;;4874665;29;20051;-80
2022/04/24 02:50:07;;;;;;;16.52;9.18;;;7.10;99.90;;;;;;4875226;29;20048;-81
2022/04/24 02:52:33;;;;;;;11.48;8.48;;;7.00;99.90;;;;;;4876579;29;20049;-80
2022/04/24 02:54:58;;;;;;;12.80;8.90;;;7.00;99.90;;;;;;4874257;29;20049;-80
2022/04/24 02:57:24;;;;;;;11.57;8.70;;;7.00;99.90;;;;;;4877341;29;20055;-80
2022/04/24 02:59:52;;;;;;;15.82;8.55;;;6.90;99.90;;;;;;4857450;29;20104;-80
2022/04/24 03:02:18;;;;;;;12.20;8.90;;;7.00;99.90;;;;;;4860037;29;20045;-79
2022/04/24 03:04:46;;;;;;;13.77;8.23;;;7.10;99.90;;;;;;4874373;29;20081;-79
2022/04/24 03:07:15;;;;;;;11.20;8.65;;;7.60;99.90;;;;;;4874409;29;20513;-80
2022/04/24 03:09:41;;;;;;;15.35;9.07;;;6.90;99.90;;;;;;4859277;29;20520;-80
2022/04/24 03:12:07;;;;;;;11.95;8.27;;;7.70;99.90;;;;;;4859568;29;20053;-79
2022/04/24 03:14:35;;;;;;;12.35;7.50;;;6.80;99.90;;;;;;4873804;29;20477;-80
2022/04/24 03:17:01;;;;;;;11.40;8.60;;;6.80;99.90;;;;;;4874430;29;20123;-80
2022/04/24 03:19:27;;;;;;;11.82;8.25;;;7.00;99.90;;;;;;4876708;29;20132;-80
2022/04/24 03:21:52;;;;;;;12.25;8.15;;;6.80;99.90;;;;;;4873388;29;20513;-80
2022/04/24 03:24:18;;;;;;;13.18;8.05;;;7.10;99.90;;;;;;4874609;29;20060;-80
2022/04/24 03:26:43;;;;;;;11.88;7.90;;;6.90;99.90;;;;;;4874828;29;20053;-80
2022/04/24 03:29:09;;;;;;;15.88;8.30;;;6.80;99.90;;;;;;4873834;29;20067;-80
2022/04/24 03:31:35;;;;;;;11.02;8.43;;;6.70;99.90;;;;;;4875099;29;20048;-80
2022/04/24 03:34:00;;;;;;;13.10;8.38;;;6.70;99.90;;;;;;4873976;29;20076;-80
2022/04/24 03:36:26;;;;;;;11.75;8.05;;;6.90;99.90;;;;;;4874071;29;20048;-80
2022/04/24 03:38:51;;;;;;;12.35;8.40;;;6.70;99.90;;;;;;4874071;29;20049;-81
2022/04/24 03:41:17;;;;;;;10.82;7.70;;;7.20;99.90;;;;;;4875748;29;20041;-81
2022/04/24 03:43:43;;;;;;;12.38;8.43;;;7.40;99.90;;;;;;4873375;29;20565;-80
2022/04/24 03:46:08;;;;;;;12.98;8.27;;;6.70;99.90;;;;;;4873839;29;20127;-80
2022/04/24 03:48:34;;;;;;;15.10;9.38;;;6.90;99.90;;;;;;4874325;29;20512;-80
2022/04/24 03:51:01;;;;;;;13.50;8.80;;;6.80;99.90;;;;;;4873762;29;20189;-80
2022/04/24 03:53:27;;;;;;;13.55;8.13;;;6.80;99.90;;;;;;4874502;29;20056;-80
2022/04/24 03:55:52;;;;;;;12.63;8.13;;;6.70;99.90;;;;;;4874138;29;20056;-80
2022/04/24 03:58:21;;;;;;;11.70;7.78;;;7.10;99.90;;;;;;4873121;29;20128;-80
2022/04/24 04:00:47;;;;;;;14.82;7.90;;;6.60;99.90;;;;;;4857860;29;20136;-80
2022/04/24 04:03:13;;;;;;;13.52;8.05;;;6.70;99.90;;;;;;4874599;29;20040;-80
2022/04/24 04:06:04;;;;;;;14.02;8.38;;;7.10;99.90;;;;;;4877142;29;20413;-80
2022/04/24 04:08:30;;;;;;;9.88;7.07;;;6.70;99.90;;;;;;4894561;29;20552;-80
2022/04/24 04:10:56;;;;;;;10.63;7.68;;;6.80;99.90;;;;;;4860192;29;20049;-80
2022/04/24 04:13:21;;;;;;;10.30;7.93;;;6.70;99.90;;;;;;4894305;29;20131;-80
2022/04/24 04:15:47;;;;;;;13.40;7.97;;;6.60;99.90;;;;;;4875989;29;20560;-80
2022/04/24 04:18:12;;;;;;;12.15;7.57;;;6.50;99.90;;;;;;4876439;29;20044;-80
2022/04/24 04:20:38;;;;;;;11.57;7.78;;;6.50;99.90;;;;;;4877149;29;20703;-81
2022/04/24 04:23:04;;;;;;;13.13;7.88;;;6.50;99.90;;;;;;4876182;29;20469;-80
2022/04/24 04:25:29;;;;;;;15.02;8.30;;;6.50;99.90;;;;;;4861082;29;20107;-80
2022/04/24 04:27:55;;;;;;;15.68;9.02;;;6.50;99.90;;;;;;4861317;29;20067;-80
2022/04/24 04:30:21;;;;;;;16.27;8.38;;;6.90;99.90;;;;;;4876313;29;20123;-81
2022/04/24 04:32:47;;;;;;;11.20;7.88;;;6.50;99.90;;;;;;4891469;29;20048;-80
2022/04/24 04:35:12;;;;;;;15.05;8.20;;;6.80;99.90;;;;;;4891768;29;20049;-80
2022/04/24 04:37:39;;;;;;;12.43;8.68;;;6.70;99.90;;;;;;4892595;29;20051;-80
2022/04/24 04:40:07;;;;;;;13.82;8.50;;;6.60;99.90;;;;;;4890950;29;20064;-80
2022/04/24 04:42:33;;;;;;;11.65;8.63;;;6.70;99.90;;;;;;4876791;29;20559;-80
2022/04/24 04:45:00;;;;;;;12.68;8.82;;;6.70;99.90;;;;;;4860042;29;20048;-80
2022/04/24 04:47:27;;;;;;;12.63;8.50;;;7.30;99.90;;;;;;4891022;29;20088;-80
2022/04/24 04:49:54;;;;;;;13.48;8.75;;;6.90;99.90;;;;;;4875375;29;20552;-80
2022/04/24 04:52:21;;;;;;;13.20;8.90;;;7.70;99.90;;;;;;4860235;29;20055;-80
2022/04/24 04:54:46;;;;;;;15.82;8.88;;;7.80;99.90;;;;;;4860547;29;20617;-80
2022/04/24 04:57:21;;;;;;;13.77;8.65;;;6.90;99.90;;;;;;4892110;29;20151;-80
2022/04/24 04:59:47;;;;;;;15.73;9.65;;;7.40;99.90;;;;;;4890221;29;20052;-80
2022/04/24 05:02:13;;;;;;;16.50;9.25;;;7.80;99.90;;;;;;4891671;29;20104;-80
2022/04/24 05:04:39;;;;;;;13.52;9.18;;;6.90;99.90;;;;;;4892759;29;20053;-80
2022/04/24 05:07:05;;;;;;;13.50;9.95;;;7.30;99.90;;;;;;4859859;29;20561;-80
2022/04/24 05:09:31;;;;;;;15.45;9.88;;;7.20;99.90;;;;;;4891408;29;20060;-80
2022/04/24 05:11:57;;;;;;;12.32;9.77;;;7.40;99.90;;;;;;4891528;29;20064;-80
2022/04/24 05:14:22;;;;;;;17.67;10.43;;;7.10;99.90;;;;;;4873774;29;20105;-80
2022/04/24 05:16:48;;;;;;;13.82;9.85;;;7.20;99.90;;;;;;4860838;29;20048;-80
2022/04/24 05:19:13;;;;;;;14.85;9.73;;;7.60;99.90;;;;;;4877343;29;20044;-80
2022/04/24 05:21:39;;;;;;;18.00;10.52;;;7.90;99.90;;;;;;4875911;29;20049;-79
2022/04/24 05:24:05;;;;;;;19.98;10.13;;;7.20;99.90;;;;;;4892841;29;20057;-80
2022/04/24 05:26:31;;;;;;;15.38;10.38;;;7.30;99.90;;;;;;4875986;29;20148;-80
2022/04/24 05:28:57;;;;;;;15.95;10.10;;;7.60;99.90;;;;;;4874450;29;20132;-81
2022/04/24 05:31:25;;;;;;;13.50;9.30;;;8.00;99.90;;;;;;4876405;29;20097;-80
2022/04/24 05:33:51;;;;;;;15.00;9.55;;;7.40;99.90;;;;;;4875499;29;20116;-80
2022/04/24 05:36:17;;;;;;;17.13;9.68;;;7.50;99.90;;;;;;4875668;29;20052;-80
2022/04/24 05:38:45;;;;;;;15.50;9.68;;;7.60;99.90;;;;;;4892824;29;20047;-79
2022/04/24 05:41:11;;;;;;;15.23;9.52;;;8.50;99.90;;;;;;4876525;29;20057;-80
2022/04/24 05:43:36;;;;;;;14.35;9.50;;;8.30;99.90;;;;;;4875019;29;20108;-80
2022/04/24 05:46:02;;;;;;;14.68;8.95;;;8.40;99.90;;;;;;4875736;29;20080;-79
2022/04/24 05:48:28;;;;;;;12.45;8.80;;;8.20;99.90;;;;;;4876839;29;20044;-80
2022/04/24 05:50:53;;;;;;;11.80;8.50;;;8.30;99.90;;;;;;4875120;29;20515;-81
2022/04/24 05:53:19;;;;;;;11.45;7.75;;;8.20;99.90;;;;;;4876172;29;20063;-80
2022/04/24 05:55:45;;;;;;;11.45;7.43;;;8.90;99.90;;;;;;4874709;29;20143;-80
2022/04/24 05:58:10;;;;;;;13.77;7.63;;;7.80;99.90;;;;;;4892885;29;20123;-81
2022/04/24 06:00:36;;;;;;;12.85;7.93;;;8.80;99.90;;;;;;4875848;29;20132;-81
2022/04/24 06:03:02;;;;;;;11.18;7.32;;;8.30;99.90;;;;;;4877668;29;20503;-80
2022/04/24 06:05:37;;;;;;;10.43;6.65;;;9.20;99.90;;;;;;4885278;29;20056;-81
2022/04/24 06:08:04;;;;;;;11.93;6.88;;;8.70;99.90;;;;;;4894360;29;20049;-81
2022/04/24 06:10:30;;;;;;;13.50;7.00;;;8.50;99.90;;;;;;4895351;29;20474;-81
2022/04/24 06:12:57;;;;;;;12.27;6.60;;;8.60;99.90;;;;;;4894394;29;20051;-80
2022/04/24 06:15:24;;;;;;;12.05;6.25;;;9.10;99.90;;;;;;4894073;29;20464;-81
2022/04/24 06:17:52;;;;;;;16.50;6.13;;;8.70;99.90;;;;;;4893143;29;20151;-80
2022/04/24 06:20:22;;;;;;;9.30;6.18;;;9.30;99.90;;;;;;4894759;29;20049;-81
2022/04/24 06:22:52;;;;;;;11.25;6.28;;;8.60;99.90;;;;;;4894304;29;20055;-80
2022/04/24 06:25:20;;;;;;;9.05;5.38;;;9.50;99.90;;;;;;4893985;29;20045;-81
2022/04/24 06:27:48;;;;;;;9.38;5.32;;;9.00;99.90;;;;;;4891589;29;20049;-80
2022/04/24 06:30:15;;;;;;;9.73;5.35;;;9.10;99.90;;;;;;4892631;29;20052;-80
2022/04/24 06:32:42;;;;;;;9.57;5.03;;;9.10;99.90;;;;;;4894047;29;20044;-80
2022/04/24 06:35:10;;;;;;;10.05;5.18;;;9.20;99.90;;;;;;4892741;29;20119;-81
2022/04/24 06:37:38;;;;;;;8.10;4.60;;;9.30;99.90;;;;;;4893039;29;20048;-81
2022/04/24 06:40:07;;;;;;;7.90;4.20;;;9.30;99.90;;;;;;4892302;29;20493;-81
2022/04/24 06:42:34;;;;;;;7.32;4.25;;;9.40;99.90;;;;;;4893414;29;20052;-81
2022/04/24 06:45:00;;;;;;;8.18;4.43;;;9.90;99.90;;;;;;4891140;29;20052;-81
2022/04/24 06:47:27;;;;;;;5.90;3.70;;;9.50;99.90;;;;;;4892131;29;20051;-81
2022/04/24 06:49:54;;;;;;;12.25;4.70;;;9.60;99.90;;;;;;4876650;29;20040;-81
2022/04/24 06:52:20;;;;;;;7.22;3.55;;;9.60;99.90;;;;;;4892645;29;20040;-81
2022/04/24 06:54:46;;;;;;;8.98;3.13;;;9.70;99.90;;;;;;4892179;29;20107;-81
2022/04/24 06:57:12;;;;;;;8.52;3.42;;;9.80;99.90;;;;;;4893173;29;20210;-80
2022/04/24 06:59:37;;;;;;;5.75;3.03;;;10.20;99.90;;;;;;4891676;29;20131;-80
2022/04/24 07:02:03;;;;;;;8.32;3.08;;;9.90;99.90;;;;;;4892181;29;20045;-81
2022/04/24 07:04:29;;;;;;;6.78;3.00;;;10.10;99.90;;;;;;4885078;29;20061;-82
2022/04/24 07:06:54;;;;;;;11.70;2.80;;;10.20;99.90;;;;;;4889173;29;20055;-81
2022/04/24 07:09:20;;;;;;;7.43;2.67;;;10.20;99.90;;;;;;4893081;29;20407;-80
2022/04/24 07:11:46;;;;;;;10.10;3.05;;;10.30;99.90;;;;;;4892610;29;20485;-81
2022/04/24 07:14:11;;;;;;;5.72;2.63;;;10.40;99.90;;;;;;4891106;29;20055;-81
2022/04/24 07:16:37;;;;;;;8.27;2.58;;;10.60;99.90;;;;;;4893260;29;20581;-81
2022/04/24 07:19:03;;;;;;;6.43;2.40;;;11.10;99.90;;;;;;4888739;29;20063;-81
2022/04/24 07:21:28;;;;;;;7.07;2.17;;;10.70;99.90;;;;;;4871452;29;20048;-81
2022/04/24 07:23:56;;;;;;;7.53;2.53;;;11.40;99.90;;;;;;4872468;29;20493;-82
2022/04/24 07:26:21;;;;;;;5.53;2.63;;;11.00;99.90;;;;;;4878182;29;20505;-81
2022/04/24 07:28:47;;;;;;;7.60;2.97;;;11.10;99.90;;;;;;4888809;29;20085;-81
2022/04/24 07:31:14;;;;;;;7.45;2.40;;;11.20;99.90;;;;;;4874409;29;20052;-81
2022/04/24 07:33:40;;;;;;;4.82;2.60;;;11.30;99.90;;;;;;4875533;29;20056;-81
2022/04/24 07:36:06;;;;;;;5.25;2.70;;;11.40;99.90;;;;;;4874525;29;20059;-81
2022/04/24 07:38:32;;;;;;;6.78;2.88;;;11.50;99.90;;;;;;4890761;29;20052;-82
2022/04/24 07:40:59;;;;;;;6.18;2.50;;;11.60;99.90;;;;;;4875072;29;20417;-81
2022/04/24 07:43:24;;;;;;;7.35;3.30;;;11.60;99.90;;;;;;4889794;29;20430;-81
2022/04/24 07:45:50;;;;;;;10.20;3.38;;;11.90;99.90;;;;;;4873623;29;20609;-81
2022/04/24 07:48:17;;;;;;;6.07;2.65;;;11.50;99.90;;;;;;4889521;29;20055;-80
2022/04/24 07:50:45;;;;;;;8.85;2.92;;;11.80;99.90;;;;;;4890196;29;20044;-81
2022/04/24 07:53:11;;;;;;;5.80;2.90;;;12.00;99.90;;;;;;4875038;29;20048;-81
2022/04/24 07:55:40;;;;;;;6.25;2.80;;;12.00;99.90;;;;;;4889224;29;20052;-80
2022/04/24 07:58:06;;;;;;;9.00;3.63;;;11.70;99.90;;;;;;4885822;29;20227;-79
2022/04/24 08:00:33;;;;;;;6.50;2.60;;;11.80;99.90;;;;;;4890614;29;20110;-80
2022/04/24 08:03:01;;;;;;;7.97;3.17;;;11.80;99.90;;;;;;4874213;29;20083;-80
2022/04/24 08:05:29;;;;;;;8.82;2.90;;;11.90;99.90;;;;;;4890584;29;20060;-80
2022/04/24 08:07:57;;;;;;;5.47;2.72;;;12.00;99.90;;;;;;4888300;29;20090;-80
2022/04/24 08:10:24;;;;;;;8.60;3.53;;;12.50;99.90;;;;;;4891132;29;20468;-80
2022/04/24 08:12:50;;;;;;;10.98;2.90;;;12.50;99.90;;;;;;4893538;29;20048;-80
2022/04/24 08:15:17;;;;;;;6.07;2.97;;;12.30;99.90;;;;;;4892226;29;20119;-80
2022/04/24 08:17:43;;;;;;;8.05;3.15;;;12.50;99.90;;;;;;4889118;29;20044;-80
2022/04/24 08:20:11;;;;;;;7.68;2.90;;;12.40;99.90;;;;;;4891581;29;20096;-81
2022/04/24 08:22:40;;;;;;;12.00;3.20;;;12.50;99.90;;;;;;4892578;29;20056;-80
2022/04/24 08:25:07;;;;;;;10.23;3.10;;;12.50;99.90;;;;;;4890223;29;20064;-80
2022/04/24 08:27:33;;;;;;;7.82;3.53;;;12.60;99.90;;;;;;4892543;29;20068;-80
2022/04/24 08:30:00;;;;;;;8.13;3.42;;;12.70;99.90;;;;;;4891650;29;20100;-80
2022/04/24 08:32:26;;;;;;;6.40;2.70;;;12.80;99.90;;;;;;4891529;29;20049;-81
2022/04/24 08:34:52;;;;;;;7.00;3.33;;;12.90;99.90;;;;;;4891291;29;20062;-80
2022/04/24 08:37:17;;;;;;;9.18;3.22;;;13.00;99.90;;;;;;4892160;29;20048;-81
2022/04/24 08:39:43;;;;;;;4.53;2.40;;;13.20;99.90;;;;;;4875620;29;20080;-80
2022/04/24 08:42:10;;;;;;;5.40;2.55;;;13.10;99.90;;;;;;4891857;29;20131;-80
2022/04/24 08:44:36;;;;;;;8.55;2.85;;;13.30;99.90;;;;;;4874690;29;20390;-80
2022/04/24 08:47:03;;;;;;;6.05;2.80;;;13.80;99.90;;;;;;4890597;29;20064;-80
2022/04/24 08:49:31;;;;;;;6.50;2.70;;;13.30;99.90;;;;;;4876078;29;20045;-83
2022/04/24 08:51:59;;;;;;;6.15;2.83;;;13.30;99.90;;;;;;4891088;29;20486;-80
2022/04/24 08:54:27;;;;;;;9.25;3.13;;;13.90;99.90;;;;;;4892446;29;20097;-80
2022/04/24 08:56:56;;;;;;;6.75;3.30;;;13.80;99.90;;;;;;4875975;29;20136;-81
2022/04/24 08:59:22;;;;;;;8.68;3.08;;;13.60;99.90;;;;;;4890953;29;20060;-81
2022/04/24 09:01:50;;;;;;;6.95;2.80;;;13.70;99.90;;;;;;4891759;29;20486;-81
2022/04/24 09:04:16;;;;;;;8.10;3.17;;;13.90;99.90;;;;;;4879056;29;20564;-81
2022/04/24 09:06:42;;;;;;;12.48;2.95;;;13.80;99.90;;;;;;4894320;29;20245;-80
2022/04/24 09:09:08;;;;;;;8.25;3.10;;;13.90;99.90;;;;;;4895030;29;20094;-81
2022/04/24 09:11:35;;;;;;;8.32;3.15;;;13.90;99.90;;;;;;4880144;29;20058;-80
2022/04/24 09:14:14;;;;;;;8.32;2.60;;;14.10;99.90;;;;;;4893628;29;20400;-80
2022/04/24 09:16:48;;;;;;;8.82;3.10;;;13.90;99.90;;;;;;4895400;29;20449;-80
2022/04/24 09:19:20;;;;;;;9.70;3.10;;;14.00;99.90;;;;;;4877698;29;20493;-80
2022/04/24 09:21:48;;;;;;;7.93;3.08;;;14.00;99.90;;;;;;4875524;29;20127;-80
2022/04/24 09:24:15;;;;;;;8.00;2.83;;;14.10;99.90;;;;;;4860536;29;20059;-80
2022/04/24 09:26:53;;;;;;;7.13;2.85;;;14.10;99.90;;;;;;4876144;29;20402;-80
2022/04/24 09:29:18;;;;;;;8.48;3.05;;;14.30;99.90;;;;;;4860323;29;20048;-80
2022/04/24 09:31:46;;;;;;;8.55;2.83;;;14.20;99.90;;;;;;4876995;29;20053;-80
2022/04/24 09:34:13;;;;;;;6.13;2.55;;;14.20;99.90;;;;;;4859614;29;20056;-80
2022/04/24 09:36:39;;;;;;;6.60;2.50;;;14.50;99.90;;;;;;4878844;29;20048;-80
2022/04/24 09:39:04;;;;;;;7.43;2.10;;;14.30;99.90;;;;;;4879102;29;20048;-80
2022/04/24 09:41:30;;;;;;;4.88;2.40;;;14.30;99.90;;;;;;4879435;29;20052;-80
2022/04/24 09:43:56;;;;;;;7.07;2.10;;;14.40;99.90;;;;;;4898697;29;20048;-81
2022/04/24 09:46:26;;;;;;;9.07;2.47;;;14.50;99.90;;;;;;4908969;29;20400;-81
2022/04/24 09:48:53;;;;;;;5.18;2.05;;;14.50;99.90;;;;;;4905842;29;20123;-81
2022/04/24 09:51:20;;;;;;;8.48;2.22;;;14.60;99.90;;;;;;4914250;29;20079;-80
2022/04/24 09:53:47;;;;;;;18.38;3.13;;;14.70;99.90;;;;;;4908979;29;20400;-81
2022/04/24 09:56:15;;;;;;;8.05;2.60;;;14.90;99.90;;;;;;4902358;29;20056;-81
2022/04/24 09:58:41;;;;;;;7.15;2.55;;;14.80;99.90;;;;;;4905752;29;20500;-80
2022/04/24 10:01:08;;;;;;;5.07;2.30;;;14.90;99.90;;;;;;4897860;29;20086;-80
2022/04/24 10:03:37;;;;;;;5.57;2.17;;;15.00;99.90;;;;;;4897114;29;20191;-81
2022/04/24 10:06:04;;;;;;;6.68;2.38;;;15.10;99.90;;;;;;4884871;29;20064;-81
2022/04/24 10:08:34;;;;;;;8.80;2.25;;;15.00;99.90;;;;;;4907087;29;20037;-81
2022/04/24 10:11:05;;;;;;;5.40;2.33;;;15.10;99.90;;;;;;4906436;29;20110;-81
2022/04/24 10:13:35;;;;;;;6.90;2.58;;;15.10;99.90;;;;;;4888192;29;20133;-80
2022/04/24 10:16:20;;;;;;;9.00;2.40;;;15.30;99.90;;;;;;4906764;29;20481;-81
2022/04/24 10:18:58;;;;;;;10.75;1.95;;;15.30;99.90;;;;;;4900883;29;20058;-81
2022/04/24 10:21:41;;;;;;;4.85;1.92;;;15.50;99.90;;;;;;4889116;29;20091;-81
2022/04/24 10:24:09;;;;;;;7.70;2.15;;;15.50;99.90;;;;;;4881241;29;20477;-81
2022/04/24 10:26:35;;;;;;;5.25;1.95;;;15.50;99.90;;;;;;4910924;29;20040;-81
2022/04/24 10:29:09;;;;;;;8.77;3.05;;;15.60;99.90;;;;;;4891298;29;20108;-81
2022/04/24 10:31:46;;;;;;;9.02;2.03;;;15.60;99.90;;;;;;4900811;29;20135;-81
2022/04/24 10:34:13;;;;;;;5.90;2.20;;;15.70;99.90;;;;;;4899154;29;20056;-80
2022/04/24 10:36:57;;;;;;;9.73;2.70;;;15.60;99.90;;;;;;4903685;29;20084;-81
2022/04/24 10:39:27;;;;;;;15.63;2.78;;;15.70;99.90;;;;;;4880355;29;20127;-81
2022/04/24 10:41:56;;;;;;;6.32;1.92;;;15.70;99.90;;;;;;4898478;29;20040;-81
2022/04/24 10:44:22;;;;;;;5.97;1.75;;;15.70;99.90;;;;;;4880743;29;20455;-81
2022/04/24 10:46:50;;;;;;;8.68;2.10;;;15.80;99.90;;;;;;4901635;29;20143;-81
2022/04/24 10:49:18;;;;;;;4.38;1.70;;;15.70;99.90;;;;;;4899896;29;20083;-81
2022/04/24 10:51:56;;;;;;;11.75;2.00;;;15.70;99.90;;;;;;4894207;29;20481;-81
2022/04/24 10:54:36;;;;;;;7.40;2.47;;;15.50;99.90;;;;;;4898900;29;20075;-81
2022/04/24 10:57:16;;;;;;;11.45;1.92;;;15.70;99.90;;;;;;4922030;29;20119;-80
2022/04/24 10:59:48;;;;;;;5.07;1.40;;;16.00;99.90;;;;;;4898368;29;20058;-81
2022/04/24 11:02:20;;;;;;;6.50;2.25;;;15.90;99.90;;;;;;4884063;29;20416;-82
2022/04/24 11:04:45;;;;;;;7.03;2.33;;;16.00;99.90;;;;;;4898431;29;20505;-83
2022/04/24 11:07:21;;;;;;;5.25;2.35;;;16.00;99.90;;;;;;4894728;29;20063;-82
2022/04/24 11:09:47;;;;;;;4.13;2.20;;;16.10;99.90;;;;;;4909293;29;20052;-82
2022/04/24 11:12:12;;;;;;;12.65;2.88;;;16.10;99.90;;;;;;4887575;29;20469;-77
2022/04/24 11:14:38;;;;;;;7.10;2.50;;;16.20;99.90;;;;;;4906374;29;20044;-77
2022/04/24 11:17:06;;;;;;;5.38;2.30;;;16.10;99.90;;;;;;4899634;29;20428;-77
2022/04/24 11:19:35;;;;;;;10.90;3.20;;;16.00;99.90;;;;;;4871723;29;20052;-78
2022/04/24 11:22:03;;;;;;;5.22;2.30;;;16.10;99.90;;;;;;4898878;29;20048;-77
2022/04/24 11:24:32;;;;;;;8.20;2.78;;;16.10;99.90;;;;;;4901499;29;20044;-77
2022/04/24 11:27:02;;;;;;;13.88;2.65;;;16.00;99.90;;;;;;4899292;29;20850;-77
2022/04/24 11:29:28;;;;;;;7.38;3.00;;;16.00;99.90;;;;;;4883663;29;20468;-77
2022/04/24 11:31:55;;;;;;;5.40;2.60;;;16.10;99.90;;;;;;4898117;29;20052;-83
2022/04/24 11:34:23;;;;;;;5.75;2.90;;;16.00;99.90;;;;;;4896984;29;20036;-83
2022/04/24 11:36:54;;;;;;;10.65;3.13;;;15.90;99.90;;;;;;4904779;29;20048;-82
2022/04/24 11:39:20;;;;;;;9.13;3.30;;;15.80;99.90;;;;;;4896309;29;20078;-82
2022/04/24 11:41:46;;;;;;;6.65;2.42;;;15.80;99.90;;;;;;4911491;29;20382;-83
2022/04/24 11:52:36;;;;;;;7.32;3.10;;;15.70;99.90;;;;;;4912273;29;20052;-79
2022/04/24 11:55:05;;;;;;;7.45;3.13;;;15.50;99.90;;;;;;4894653;29;20083;-80
2022/04/24 11:57:32;;;;;;;10.43;3.25;;;15.40;99.90;;;;;;4888495;29;20099;-80
2022/04/24 11:59:58;;;;;;;7.88;3.67;;;15.30;99.90;;;;;;4907784;29;20237;-80
2022/04/24 12:02:26;;;;;;;9.88;3.00;;;15.40;99.90;;;;;;4895319;29;20160;-80
2022/04/24 12:04:53;;;;;;;9.73;3.55;;;15.50;99.90;;;;;;4895075;29;20056;-80
2022/04/24 12:07:20;;;;;;;6.57;3.30;;;15.70;99.90;;;;;;4898385;29;20079;-79
2022/04/24 12:09:58;;;;;;;6.45;3.00;;;16.00;99.90;;;;;;4876171;29;20052;-80
2022/04/24 12:12:24;;;;;;;9.15;3.00;;;15.80;99.90;;;;;;4861779;29;20096;-80
2022/04/24 12:14:52;;;;;;;5.93;3.00;;;15.70;99.90;;;;;;4860384;29;20044;-80
2022/04/24 12:17:18;;;;;;;6.65;2.88;;;15.70;99.90;;;;;;4861298;29;20047;-80
2022/04/24 12:19:52;;;;;;;10.68;3.13;;;15.60;99.90;;;;;;4877647;29;20072;-79
2022/04/24 12:22:30;;;;;;;7.60;2.92;;;15.70;99.90;;;;;;4877514;29;20071;-79
2022/04/24 12:25:08;;;;;;;8.20;2.88;;;15.90;99.90;;;;;;4861199;29;20044;-80
2022/04/24 12:27:34;;;;;;;8.02;3.20;;;15.90;99.90;;;;;;4876870;29;20083;-80
2022/04/24 12:30:03;;;;;;;5.88;2.60;;;16.00;99.90;;;;;;4875566;29;20112;-78
2022/04/24 12:32:41;;;;;;;6.35;2.70;;;16.00;99.90;;;;;;5017913;23;20044;-91
2022/04/24 12:35:34;;;;;;;7.80;2.80;;;16.10;99.90;;;;;;4874169;29;20471;-90
2022/04/24 12:38:39;;;;;;;8.52;2.70;;;16.00;99.90;;;;;;4881574;29;20459;-92
2022/04/24 12:41:12;;;;;;;9.70;3.30;;;16.00;99.90;;;;;;4880303;29;20111;-92
2022/04/24 12:44:09;;;;;;;6.40;2.67;;;16.10;99.90;;;;;;4876629;29;20140;-91
2022/04/24 12:46:41;;;;;;;6.25;3.13;;;15.80;99.90;;;;;;4864479;29;20060;-91
2022/04/24 12:49:07;;;;;;;6.95;2.58;;;15.70;99.90;;;;;;4863027;29;20151;-90
2022/04/24 12:51:39;;;;;;;11.05;3.45;;;15.70;99.90;;;;;;4862973;29;20045;-91
2022/04/24 12:54:08;;;;;;;5.88;2.85;;;15.80;99.90;;;;;;4864334;29;20052;-91
2022/04/24 12:56:41;;;;;;;5.93;3.20;;;15.90;99.90;;;;;;4863720;29;20052;-91
2022/04/24 12:59:13;;;;;;;5.75;2.85;;;16.00;99.90;;;;;;4865320;29;20127;-92